Time;durP1;ratioP1;P1;durP2;ratioP2;P2;SDS_P1;SDS_P2;PMS_P1;PMS_P2;Temp;Humidity;BMP_temperature;BMP_pressure;BME280_temperature;BME280_humidity;BME280_pressure;Samples;Min_cycle;Max_cycle;Signal;HPM_P1;HPM_P2
2021/03/02 00:02:05;;;;;;;61.15;35.15;;;;;;;3.28;81.98;102246.55;99412;1168;82574;-70
2021/03/02 00:04:11;;;;;;;58.40;36.67;;;;;;;3.30;81.44;102250.84;99442;1173;67669;-64
2021/03/02 00:06:19;;;;;;;58.65;35.10;;;;;;;3.31;81.69;102247.23;99425;1175;87972;-63
2021/03/02 00:08:26;;;;;;;57.80;35.30;;;;;;;3.27;81.72;102244.86;99454;1175;76259;-62
2021/03/02 00:10:32;;;;;;;57.30;34.30;;;;;;;3.27;81.72;102245.69;99441;1175;89381;-63
2021/03/02 00:12:42;;;;;;;53.37;31.70;;;;;;;3.24;81.65;102240.54;99418;1175;81502;-63
2021/03/02 00:14:48;;;;;;;51.53;31.53;;;;;;;3.28;81.59;102241.21;99450;1173;66975;-70
2021/03/02 00:16:59;;;;;;;55.70;32.80;;;;;;;3.27;81.73;102242.19;99431;1175;88543;-71
2021/03/02 00:19:13;;;;;;;52.30;31.85;;;;;;;3.30;81.57;102244.64;99457;1175;74706;-70
2021/03/02 00:21:22;;;;;;;51.63;30.70;;;;;;;3.34;81.68;102243.50;99440;1168;89703;-62
2021/03/02 00:23:37;;;;;;;52.70;31.80;;;;;;;3.34;81.57;102240.83;99436;1173;81415;-62
2021/03/02 00:25:53;;;;;;;47.45;28.85;;;;;;;3.34;81.94;102241.69;99447;1175;66914;-62
2021/03/02 00:27:59;;;;;;;46.65;28.45;;;;;;;3.32;81.32;102243.61;99431;1175;87072;-64
2021/03/02 00:30:08;;;;;;;47.50;29.10;;;;;;;3.28;81.61;102238.55;99450;1175;75157;-62
2021/03/02 00:32:19;;;;;;;45.70;28.10;;;;;;;3.30;81.68;102228.61;99437;1175;89878;-62
2021/03/02 00:34:25;;;;;;;47.83;29.03;;;;;;;3.27;81.54;102218.16;99419;1175;82863;-62
2021/03/02 00:36:34;;;;;;;48.20;30.40;;;;;;;3.25;81.66;102210.22;99458;1168;67016;-62
2021/03/02 00:38:39;;;;;;;50.85;32.30;;;;;;;3.27;81.58;102207.47;99441;1175;87545;-62
2021/03/02 00:40:45;;;;;;;47.85;29.70;;;;;;;3.27;81.05;102202.13;99449;1175;75378;-71
2021/03/02 00:42:52;;;;;;;50.50;30.20;;;;;;;3.24;81.64;102196.98;99444;1175;89906;-71
2021/03/02 00:44:57;;;;;;;44.90;28.33;;;;;;;3.27;81.59;102197.62;99433;1175;83126;-72
2021/03/02 00:47:03;;;;;;;53.60;30.00;;;;;;;3.25;81.71;102182.66;99453;1173;67096;-72
2021/03/02 00:49:09;;;;;;;47.63;28.83;;;;;;;3.25;81.55;102183.52;99435;1172;86815;-63
2021/03/02 00:51:15;;;;;;;48.00;29.35;;;;;;;3.26;81.62;102187.91;99441;1175;74283;-71
2021/03/02 00:53:21;;;;;;;44.85;27.95;;;;;;;3.26;81.73;102187.91;99440;1172;89537;-71
2021/03/02 00:55:27;;;;;;;49.40;29.90;;;;;;;3.28;81.67;102185.13;99414;1175;83359;-63
2021/03/02 00:57:33;;;;;;;55.15;31.20;;;;;;;3.29;81.54;102186.86;99440;1175;67024;-63
2021/03/02 00:59:38;;;;;;;57.60;32.20;;;;;;;3.29;81.76;102187.72;99433;1175;87784;-71
2021/03/02 01:01:44;;;;;;;57.55;32.00;;;;;;;3.29;81.37;102186.86;99439;1175;76061;-71
2021/03/02 01:03:49;;;;;;;49.03;28.17;;;;;;;3.24;81.74;102191.64;99430;1173;89052;-72
2021/03/02 01:05:55;;;;;;;52.65;30.45;;;;;;;3.22;81.67;102177.50;99427;1175;82362;-71
2021/03/02 01:08:01;;;;;;;49.35;29.40;;;;;;;3.24;81.56;102178.29;99448;1168;67122;-70
2021/03/02 01:10:09;;;;;;;53.50;28.85;;;;;;;3.25;81.71;102182.66;99439;1175;87629;-63
2021/03/02 01:12:15;;;;;;;52.50;29.80;;;;;;;3.26;81.82;102179.91;99452;1174;76270;-63
2021/03/02 01:14:21;;;;;;;51.10;28.30;;;;;;;3.28;81.44;102180.66;99439;1168;89690;-63
2021/03/02 01:16:27;;;;;;;50.15;27.55;;;;;;;3.26;81.63;102174.56;99418;1175;82366;-63
2021/03/02 01:18:33;;;;;;;55.10;29.85;;;;;;;3.31;81.36;102176.92;99435;1168;66850;-63
2021/03/02 01:20:39;;;;;;;47.70;27.40;;;;;;;3.29;81.75;102173.50;99431;1168;86809;-71
2021/03/02 01:22:44;;;;;;;49.35;29.35;;;;;;;3.24;81.75;102170.28;99441;1175;75584;-71
2021/03/02 01:24:50;;;;;;;55.95;31.00;;;;;;;3.24;81.76;102181.79;99443;1175;89887;-71
2021/03/02 01:26:56;;;;;;;48.33;28.17;;;;;;;3.20;82.11;102166.08;99421;1174;81572;-71
2021/03/02 01:29:01;;;;;;;49.80;27.35;;;;;;;3.24;81.84;102164.94;99447;1175;66858;-70
2021/03/02 01:31:07;;;;;;;47.53;26.93;;;;;;;3.30;81.74;102164.52;99437;1175;86705;-70
2021/03/02 01:33:13;;;;;;;50.75;29.80;;;;;;;3.31;81.73;102160.90;99441;1172;74560;-71
2021/03/02 01:35:19;;;;;;;46.95;28.40;;;;;;;3.31;81.65;102158.22;99438;1174;88538;-71
2021/03/02 01:37:25;;;;;;;45.25;27.60;;;;;;;3.31;81.67;102155.55;99420;1173;82806;-72
2021/03/02 01:39:31;;;;;;;43.45;26.70;;;;;;;3.33;81.60;102151.83;99436;1168;67092;-71
2021/03/02 01:41:41;;;;;;;42.00;25.25;;;;;;;3.36;81.81;102158.78;99429;1175;87372;-71
2021/03/02 01:43:47;;;;;;;43.95;26.90;;;;;;;3.36;81.79;102146.28;99441;1172;74852;-70
2021/03/02 01:45:55;;;;;;;45.90;26.75;;;;;;;3.40;81.77;102142.47;99435;1175;89523;-63
2021/03/02 01:48:05;;;;;;;47.20;26.30;;;;;;;3.41;81.80;102138.82;99418;1168;82220;-63
2021/03/02 01:50:13;;;;;;;52.45;27.75;;;;;;;3.41;81.91;102128.14;99440;1168;66835;-63
2021/03/02 01:52:19;;;;;;;44.30;24.70;;;;;;;3.39;81.69;102130.06;99433;1173;87497;-63
2021/03/02 01:54:24;;;;;;;44.60;26.10;;;;;;;3.42;81.80;102121.84;99449;1168;75502;-71
2021/03/02 01:56:30;;;;;;;46.75;27.15;;;;;;;3.45;82.24;102123.45;99444;1175;89441;-70
2021/03/02 01:58:36;;;;;;;43.55;25.75;;;;;;;3.47;81.77;102116.19;99420;1175;82553;-71
2021/03/02 02:00:42;;;;;;;50.30;28.95;;;;;;;3.40;81.68;102125.58;99457;1175;67348;-64
2021/03/02 02:03:32;;;;;;;48.60;27.80;;;;;;;3.44;82.07;102121.73;99431;1175;87512;-62
2021/03/02 02:05:47;;;;;;;51.40;28.80;;;;;;;3.45;81.77;102120.79;99389;1174;74748;-62
2021/03/02 02:07:57;;;;;;;47.00;28.00;;;;;;;3.50;82.29;102113.31;99383;1178;89885;-63
2021/03/02 02:10:13;;;;;;;52.30;28.25;;;;;;;3.50;82.02;102108.84;99411;1175;82516;-62
2021/03/02 02:12:27;;;;;;;51.20;28.60;;;;;;;3.50;82.05;102099.96;99444;1175;67045;-62
2021/03/02 02:14:46;;;;;;;56.50;29.90;;;;;;;3.50;81.93;102100.83;99442;1174;87188;-69
2021/03/02 02:17:00;;;;;;;53.70;28.10;;;;;;;3.55;82.07;102096.02;99450;1168;75605;-70
2021/03/02 02:19:48;;;;;;;52.60;30.60;;;;;;;3.58;81.80;102093.15;99446;1173;88861;-70
2021/03/02 02:22:31;;;;;;;53.50;29.03;;;;;;;3.58;82.13;102094.95;99376;1168;81654;-63
2021/03/02 02:24:56;;;;;;;61.00;30.65;;;;;;;3.49;82.13;102090.22;99427;1175;67063;-62
2021/03/02 02:27:02;;;;;;;54.60;30.57;;;;;;;3.48;82.12;102099.22;99441;1168;86528;-62
2021/03/02 02:29:14;;;;;;;55.47;31.40;;;;;;;3.47;82.54;102092.15;99462;1175;75810;-63
2021/03/02 02:31:21;;;;;;;55.70;32.40;;;;;;;3.44;82.20;102095.02;99434;1174;89433;-69
2021/03/02 02:33:34;;;;;;;60.10;31.00;;;;;;;3.45;82.33;102094.94;99427;1174;82732;-70
2021/03/02 02:35:43;;;;;;;60.80;33.60;;;;;;;3.41;82.67;102092.55;99448;1172;67023;-63
2021/03/02 02:37:50;;;;;;;59.15;31.60;;;;;;;3.44;82.27;102098.55;99433;1175;86405;-63
2021/03/02 02:39:57;;;;;;;59.30;31.65;;;;;;;3.45;82.14;102088.73;99446;1168;75656;-63
2021/03/02 02:42:04;;;;;;;61.65;33.60;;;;;;;3.46;82.38;102096.63;99434;1175;89462;-63
2021/03/02 02:44:12;;;;;;;60.40;33.20;;;;;;;3.48;82.17;102097.41;99427;1175;83052;-65
2021/03/02 02:46:19;;;;;;;63.20;35.40;;;;;;;3.50;82.19;102089.27;99444;1175;67077;-63
2021/03/02 02:48:25;;;;;;;66.50;34.35;;;;;;;3.53;82.14;102102.43;99434;1168;86293;-63
2021/03/02 02:50:32;;;;;;;65.80;34.90;;;;;;;3.56;82.06;102103.09;99459;1175;75943;-69
2021/03/02 02:52:40;;;;;;;62.15;35.00;;;;;;;3.54;82.48;102109.50;99444;1168;89998;-70
2021/03/02 02:54:48;;;;;;;57.40;32.50;;;;;;;3.51;82.46;102107.89;99425;1168;81420;-63
2021/03/02 02:56:56;;;;;;;62.90;33.25;;;;;;;3.49;82.53;102111.59;99441;1174;67221;-62
2021/03/02 02:59:16;;;;;;;68.25;35.10;;;;;;;3.51;82.17;102109.70;99439;1175;87184;-63
2021/03/02 03:01:23;;;;;;;60.65;33.70;;;;;;;3.50;82.37;102107.98;99443;1172;74896;-62
2021/03/02 03:03:33;;;;;;;58.90;33.40;;;;;;;3.56;82.44;102108.44;99443;1172;88394;-62
2021/03/02 03:05:48;;;;;;;64.20;36.20;;;;;;;3.60;82.20;102110.91;99427;1175;82910;-62
2021/03/02 03:08:03;;;;;;;57.20;32.70;;;;;;;3.54;82.49;102106.83;99447;1175;66917;-62
2021/03/02 03:10:12;;;;;;;59.50;32.25;;;;;;;3.51;82.53;102107.03;99438;1175;87831;-62
2021/03/02 03:12:18;;;;;;;61.20;33.55;;;;;;;3.50;82.48;102106.16;99442;1175;75439;-63
2021/03/02 03:14:26;;;;;;;53.70;31.30;;;;;;;3.51;82.23;102104.36;99435;1175;90111;-62
2021/03/02 03:16:37;;;;;;;56.95;32.30;;;;;;;3.53;82.29;102100.63;99428;1175;82560;-62
2021/03/02 03:18:49;;;;;;;58.00;33.70;;;;;;;3.57;82.65;102102.11;99443;1175;66825;-62
2021/03/02 03:20:58;;;;;;;58.25;32.00;;;;;;;3.60;82.59;102108.23;99443;1175;87556;-62
2021/03/02 03:23:06;;;;;;;65.05;35.80;;;;;;;3.64;82.13;102110.59;99457;1174;74948;-62
2021/03/02 03:25:15;;;;;;;61.27;33.03;;;;;;;3.65;82.57;102114.13;99443;1175;88885;-69
2021/03/02 03:27:24;;;;;;;63.40;34.73;;;;;;;3.63;82.63;102119.55;99422;1175;83216;-69
2021/03/02 03:29:30;;;;;;;59.00;33.70;;;;;;;3.65;82.41;102116.80;99440;1168;66977;-62
2021/03/02 03:31:36;;;;;;;59.95;32.15;;;;;;;3.64;82.86;102115.93;99426;1168;87310;-62
2021/03/02 03:33:44;;;;;;;56.90;30.60;;;;;;;3.56;82.54;102113.78;99447;1175;75625;-62
2021/03/02 03:35:51;;;;;;;60.10;33.50;;;;;;;3.57;82.33;102098.61;99436;1175;90082;-62
2021/03/02 03:37:57;;;;;;;58.50;33.30;;;;;;;3.62;82.68;102104.50;99429;1173;82080;-62
2021/03/02 03:40:08;;;;;;;61.23;32.77;;;;;;;3.59;83.14;102110.04;99444;1168;67125;-63
2021/03/02 03:42:13;;;;;;;60.20;33.50;;;;;;;3.58;82.72;102103.84;99416;1172;86597;-63
2021/03/02 03:44:19;;;;;;;59.70;33.75;;;;;;;3.57;82.84;102106.63;99442;1175;75085;-70
2021/03/02 03:46:28;;;;;;;63.70;33.95;;;;;;;3.62;82.67;102103.63;99447;1175;90022;-70
2021/03/02 03:48:34;;;;;;;61.20;34.80;;;;;;;3.64;82.69;102102.56;99418;1175;82638;-70
2021/03/02 03:50:40;;;;;;;61.25;32.95;;;;;;;3.62;82.60;102106.30;99446;1168;67064;-62
2021/03/02 03:52:50;;;;;;;57.60;32.75;;;;;;;3.63;82.30;102103.52;99432;1168;87503;-62
2021/03/02 03:54:58;;;;;;;59.75;34.90;;;;;;;3.67;82.87;102094.34;99448;1168;74912;-69
2021/03/02 03:57:06;;;;;;;60.45;33.85;;;;;;;3.69;82.63;102095.09;99431;1168;89186;-70
2021/03/02 03:59:15;;;;;;;54.70;32.85;;;;;;;3.70;82.82;102082.59;99412;1174;81658;-63
2021/03/02 04:01:22;;;;;;;62.70;33.90;;;;;;;3.67;82.80;102082.80;99447;1172;66888;-63
2021/03/02 04:03:30;;;;;;;61.20;33.70;;;;;;;3.69;82.50;102084.40;99435;1175;87628;-63
2021/03/02 04:05:38;;;;;;;58.45;32.35;;;;;;;3.72;82.76;102078.85;99447;1168;74878;-63
2021/03/02 04:07:46;;;;;;;58.60;33.37;;;;;;;3.71;82.82;102079.80;99450;1172;89009;-63
2021/03/02 04:09:52;;;;;;;56.00;33.90;;;;;;;3.74;82.73;102074.25;99420;1171;81798;-63
2021/03/02 04:11:58;;;;;;;60.90;34.00;;;;;;;3.76;82.75;102068.81;99443;1168;66873;-63
2021/03/02 04:14:06;;;;;;;60.20;32.10;;;;;;;3.73;82.85;102077.05;99437;1175;87504;-63
2021/03/02 04:16:12;;;;;;;60.70;33.90;;;;;;;3.74;82.63;102070.72;99456;1175;77255;-63
2021/03/02 04:18:19;;;;;;;55.30;33.20;;;;;;;3.76;82.72;102071.49;99447;1168;89065;-63
2021/03/02 04:20:26;;;;;;;59.70;34.20;;;;;;;3.76;82.68;102072.36;99426;1175;81843;-63
2021/03/02 04:22:37;;;;;;;58.65;34.40;;;;;;;3.76;82.83;102064.34;99437;1168;66975;-63
2021/03/02 04:24:42;;;;;;;57.80;33.50;;;;;;;3.75;82.88;102065.28;99435;1175;87167;-63
2021/03/02 04:26:48;;;;;;;58.13;33.53;;;;;;;3.76;82.56;102066.14;99444;1171;75753;-63
2021/03/02 04:28:54;;;;;;;60.15;33.50;;;;;;;3.80;82.87;102067.63;99449;1175;88705;-63
2021/03/02 04:31:00;;;;;;;57.60;34.15;;;;;;;3.79;82.71;102061.42;99418;1175;82585;-63
2021/03/02 04:33:07;;;;;;;58.75;32.75;;;;;;;3.75;82.70;102064.42;99439;1173;67063;-63
2021/03/02 04:35:15;;;;;;;59.85;34.55;;;;;;;3.80;82.57;102057.80;99434;1173;87727;-63
2021/03/02 04:37:20;;;;;;;61.35;34.25;;;;;;;3.74;82.96;102052.01;99441;1173;75262;-63
2021/03/02 04:39:29;;;;;;;62.00;34.90;;;;;;;3.74;82.80;102058.22;99448;1175;89319;-63
2021/03/02 04:41:35;;;;;;;59.47;34.67;;;;;;;3.74;82.46;102063.56;99415;1173;82208;-63
2021/03/02 04:43:44;;;;;;;64.85;37.05;;;;;;;3.78;82.92;102061.55;99444;1168;67065;-64
2021/03/02 04:45:50;;;;;;;62.95;36.65;;;;;;;3.84;82.79;102056.64;99439;1168;87122;-64
2021/03/02 04:47:55;;;;;;;61.25;35.40;;;;;;;3.78;82.85;102057.06;99442;1175;76208;-64
2021/03/02 04:50:01;;;;;;;60.00;35.40;;;;;;;3.77;82.97;102055.33;99445;1175;89641;-67
2021/03/02 04:52:10;;;;;;;60.15;35.70;;;;;;;3.78;82.71;102049.04;99428;1172;82929;-67
2021/03/02 04:54:18;;;;;;;63.40;36.70;;;;;;;3.78;82.67;102046.37;99446;1175;66838;-66
2021/03/02 04:56:24;;;;;;;64.45;36.15;;;;;;;3.77;82.53;102051.80;99429;1168;87085;-69
2021/03/02 04:58:30;;;;;;;63.87;35.77;;;;;;;3.78;82.78;102049.04;99446;1175;75716;-68
2021/03/02 05:00:36;;;;;;;60.20;35.15;;;;;;;3.79;82.71;102039.21;99437;1173;88348;-69
2021/03/02 05:02:42;;;;;;;62.13;35.73;;;;;;;3.84;82.76;102053.97;99417;1175;81783;-70
2021/03/02 05:04:48;;;;;;;63.40;36.80;;;;;;;3.85;82.70;102038.76;99445;1174;66851;-61
2021/03/02 05:06:53;;;;;;;64.60;38.20;;;;;;;3.86;82.68;102041.34;99435;1174;87512;-61
2021/03/02 05:08:59;;;;;;;59.50;33.80;;;;;;;3.83;82.81;102038.88;99446;1173;75962;-63
2021/03/02 05:11:05;;;;;;;58.93;34.67;;;;;;;3.83;82.83;102030.00;99437;1175;88756;-71
2021/03/02 05:13:11;;;;;;;56.50;34.20;;;;;;;3.84;82.60;102034.40;99422;1173;81796;-69
2021/03/02 05:15:18;;;;;;;63.95;37.00;;;;;;;3.85;82.87;102031.60;99448;1175;67210;-69
2021/03/02 05:17:24;;;;;;;60.70;36.75;;;;;;;3.84;82.62;102031.72;99434;1175;87840;-69
2021/03/02 05:19:30;;;;;;;57.90;34.80;;;;;;;3.87;82.76;102032.38;99437;1175;75898;-71
2021/03/02 05:21:36;;;;;;;62.50;35.90;;;;;;;3.85;82.79;102025.39;99437;1175;88693;-69
2021/03/02 05:23:42;;;;;;;61.10;35.60;;;;;;;3.86;82.93;102035.14;99425;1175;82609;-69
2021/03/02 05:25:47;;;;;;;60.00;34.50;;;;;;;3.87;82.73;102035.05;99447;1168;66839;-62
2021/03/02 05:27:53;;;;;;;59.10;34.75;;;;;;;3.86;82.85;102029.80;99429;1173;87621;-62
2021/03/02 05:29:59;;;;;;;57.50;34.70;;;;;;;3.85;82.80;102031.60;99445;1168;75616;-62
2021/03/02 05:32:06;;;;;;;62.30;34.60;;;;;;;3.89;82.88;102026.91;99439;1175;89387;-61
2021/03/02 05:34:13;;;;;;;59.90;35.60;;;;;;;3.86;82.95;102030.66;99426;1172;81727;-61
2021/03/02 05:36:19;;;;;;;61.15;35.05;;;;;;;3.76;83.18;102026.92;99437;1175;67042;-61
2021/03/02 05:38:24;;;;;;;59.70;34.30;;;;;;;3.79;82.92;102023.17;99420;1173;87168;-61
2021/03/02 05:40:33;;;;;;;61.45;35.25;;;;;;;3.82;82.26;102018.45;99441;1173;75161;-62
2021/03/02 05:42:39;;;;;;;58.60;34.35;;;;;;;3.88;82.76;102025.19;99438;1168;88507;-61
2021/03/02 05:44:48;;;;;;;57.45;33.95;;;;;;;3.89;83.08;102022.42;99427;1174;82565;-68
2021/03/02 05:46:57;;;;;;;58.80;33.73;;;;;;;3.86;82.97;102019.09;99454;1174;67138;-68
2021/03/02 05:49:12;;;;;;;60.40;34.20;;;;;;;3.90;82.38;102016.09;99438;1175;87705;-65
2021/03/02 05:51:19;;;;;;;59.45;34.35;;;;;;;3.88;82.71;102012.68;99440;1168;75137;-62
2021/03/02 05:53:25;;;;;;;55.80;33.10;;;;;;;3.93;82.72;102023.04;99425;1172;89042;-62
2021/03/02 05:55:32;;;;;;;58.10;33.90;;;;;;;3.90;82.62;102025.96;99425;1175;81726;-62
2021/03/02 05:57:39;;;;;;;57.20;32.40;;;;;;;3.95;82.72;102030.02;99451;1175;67261;-62
2021/03/02 05:59:45;;;;;;;63.00;34.45;;;;;;;3.98;83.08;102028.95;99434;1172;87985;-62
2021/03/02 06:01:53;;;;;;;52.00;30.50;;;;;;;3.99;82.88;102023.48;99453;1175;75749;-62
2021/03/02 06:04:00;;;;;;;53.95;33.30;;;;;;;4.03;82.84;102022.32;99446;1175;89594;-62
2021/03/02 06:06:07;;;;;;;57.20;32.85;;;;;;;4.06;82.33;102021.25;99428;1173;82076;-62
2021/03/02 06:08:13;;;;;;;60.10;33.60;;;;;;;4.07;82.81;102021.13;99448;1175;67188;-62
2021/03/02 06:10:19;;;;;;;55.50;33.00;;;;;;;4.08;82.33;102024.66;99433;1175;87172;-66
2021/03/02 06:12:28;;;;;;;56.20;32.60;;;;;;;4.08;82.92;102033.55;99447;1175;76079;-66
2021/03/02 06:14:35;;;;;;;53.30;33.20;;;;;;;4.11;82.52;102019.09;99442;1175;89391;-65
2021/03/02 06:16:48;;;;;;;56.70;33.30;;;;;;;4.15;82.83;102021.44;99428;1175;83013;-67
2021/03/02 06:18:55;;;;;;;57.68;32.20;;;;;;;4.17;82.88;102024.84;99444;1175;66851;-67
2021/03/02 06:21:13;;;;;;;53.05;32.15;;;;;;;4.21;82.51;102035.33;99439;1175;87715;-67
2021/03/02 06:23:25;;;;;;;54.30;32.40;;;;;;;4.25;82.53;102034.17;99441;1175;75876;-68
2021/03/02 06:25:33;;;;;;;54.35;32.60;;;;;;;4.24;82.83;102038.66;99443;1168;89641;-66
2021/03/02 06:27:47;;;;;;;56.10;32.50;;;;;;;4.26;82.41;102030.54;99409;1175;81613;-66
2021/03/02 06:30:10;;;;;;;;;;;;;;;4.29;82.74;102027.62;99459;1175;66935;-67
2021/03/02 06:32:16;;;;;;;58.20;31.90;;;;;;;4.33;82.64;102023.77;99423;1175;88271;-68
2021/03/02 06:34:22;;;;;;;50.35;31.10;;;;;;;4.31;82.67;102028.39;99446;1172;75384;-63
2021/03/02 06:36:28;;;;;;;51.80;31.90;;;;;;;4.30;82.68;102037.36;99444;1175;89320;-62
2021/03/02 06:38:35;;;;;;;52.20;31.00;;;;;;;4.35;82.53;102037.89;99421;1169;82575;-63
2021/03/02 06:40:44;;;;;;;54.05;32.10;;;;;;;4.40;82.52;102030.38;99446;1175;67040;-68
2021/03/02 06:42:49;;;;;;;58.20;30.50;;;;;;;4.36;82.79;102018.20;99440;1172;86907;-67
2021/03/02 06:45:07;;;;;;;48.20;28.90;;;;;;;4.41;82.44;102016.05;99456;1172;75151;-63
2021/03/02 06:47:15;;;;;;;50.65;31.20;;;;;;;4.44;82.53;102003.31;99428;1175;89842;-62
2021/03/02 06:49:38;;;;;;;53.90;32.00;;;;;;;4.51;82.76;101999.22;99430;1172;82164;-67
2021/03/02 06:51:44;;;;;;;53.35;31.65;;;;;;;4.53;82.16;101999.13;99452;1168;67023;-69
2021/03/02 06:54:08;;;;;;;55.50;31.40;;;;;;;4.55;82.64;101999.86;99440;1172;86663;-68
2021/03/02 06:56:15;;;;;;;55.70;31.90;;;;;;;4.55;82.46;102000.72;99451;1173;75315;-61
2021/03/02 06:58:24;;;;;;;59.00;32.40;;;;;;;4.57;82.46;101996.10;99437;1173;89130;-62
2021/03/02 07:00:36;;;;;;;54.60;30.75;;;;;;;4.58;82.37;101996.97;99418;1175;82385;-67
2021/03/02 07:02:43;;;;;;;52.40;29.40;;;;;;;4.54;82.27;101995.46;99447;1175;66996;-62
2021/03/02 07:05:11;;;;;;;54.80;31.50;;;;;;;4.55;82.35;101992.69;99437;1168;87230;-63
2021/03/02 07:07:24;;;;;;;60.60;31.90;;;;;;;4.62;82.57;101999.29;99444;1175;76022;-63
2021/03/02 07:09:34;;;;;;;58.90;33.30;;;;;;;4.65;82.44;102000.89;99439;1172;89388;-63
2021/03/02 07:11:41;;;;;;;64.50;35.30;;;;;;;4.69;82.46;101983.66;99420;1175;82250;-62
2021/03/02 07:13:50;;;;;;;57.35;34.15;;;;;;;4.71;82.46;101987.06;99443;1169;67025;-62
2021/03/02 07:16:00;;;;;;;60.00;33.35;;;;;;;4.82;82.16;101988.94;99448;1175;87256;-65
2021/03/02 07:18:08;;;;;;;60.25;32.10;;;;;;;4.79;81.98;101992.70;99451;1175;76087;-64
2021/03/02 07:20:18;;;;;;;62.75;35.20;;;;;;;4.86;82.13;101982.41;99442;1173;88430;-62
2021/03/02 07:22:26;;;;;;;63.73;35.10;;;;;;;4.87;82.09;101986.77;99431;1173;81962;-63
2021/03/02 07:24:35;;;;;;;61.63;33.33;;;;;;;4.96;81.87;101978.92;99444;1168;67093;-71
2021/03/02 07:26:45;;;;;;;63.05;32.90;;;;;;;4.88;82.08;101994.70;99439;1168;86584;-71
2021/03/02 07:28:52;;;;;;;61.80;34.50;;;;;;;4.85;81.82;101992.26;99451;1175;74521;-71
2021/03/02 07:31:00;;;;;;;65.70;35.50;;;;;;;4.96;82.26;102003.02;99429;1172;88406;-62
2021/03/02 07:33:07;;;;;;;63.15;35.20;;;;;;;4.97;81.62;102007.39;99433;1176;83058;-63
2021/03/02 07:35:19;;;;;;;59.20;33.65;;;;;;;5.03;81.67;102014.98;99439;1168;67169;-71
2021/03/02 07:37:25;;;;;;;62.80;34.90;;;;;;;5.04;82.23;102019.38;99432;1175;87427;-71
2021/03/02 07:39:34;;;;;;;64.35;35.50;;;;;;;5.03;81.88;102027.51;99441;1173;75391;-63
2021/03/02 07:41:41;;;;;;;68.20;39.33;;;;;;;4.99;81.72;102034.08;99433;1175;89464;-63
2021/03/02 07:43:55;;;;;;;66.40;36.25;;;;;;;5.03;81.81;102025.69;99424;1175;82856;-63
2021/03/02 07:46:03;;;;;;;67.70;34.80;;;;;;;5.09;81.98;102024.38;99457;1175;66871;-63
2021/03/02 07:48:31;;;;;;;62.65;34.95;;;;;;;5.16;81.66;102023.83;99426;1175;87925;-62
2021/03/02 07:50:37;;;;;;;61.90;33.30;;;;;;;5.23;81.85;102006.31;99451;1173;75802;-71
2021/03/02 07:52:46;;;;;;;64.60;36.10;;;;;;;5.31;81.66;102006.58;99429;1175;90149;-72
2021/03/02 07:55:21;;;;;;;60.80;33.80;;;;;;;5.38;81.38;102015.85;99425;1168;82318;-71
2021/03/02 07:57:28;;;;;;;65.80;36.80;;;;;;;5.58;81.88;102017.02;99447;1175;66861;-73
2021/03/02 07:59:33;;;;;;;61.80;36.20;;;;;;;5.66;81.05;102009.23;99438;1173;87244;-64
2021/03/02 08:01:40;;;;;;;61.25;35.35;;;;;;;5.80;81.33;102010.84;99435;1168;74704;-62
2021/03/02 08:03:46;;;;;;;64.05;36.35;;;;;;;5.98;80.78;102003.23;99447;1172;88735;-61
2021/03/02 08:05:53;;;;;;;62.70;36.95;;;;;;;6.07;81.15;102003.35;99427;1157;82977;-67
2021/03/02 08:08:39;;;;;;;62.30;34.90;;;;;;;6.06;80.82;102004.34;99464;1172;67028;-73
2021/03/02 08:10:49;;;;;;;63.93;35.13;;;;;;;6.29;80.94;102003.36;99437;1174;87947;-59
2021/03/02 08:12:58;;;;;;;62.60;38.25;;;;;;;6.29;80.40;102008.72;99442;1174;75733;-59
2021/03/02 08:15:40;;;;;;;60.85;34.95;;;;;;;6.35;80.54;102002.02;99444;1174;90035;-62
2021/03/02 08:17:48;;;;;;;59.85;35.20;;;;;;;6.60;80.40;102001.74;99418;1171;82034;-62
2021/03/02 08:20:04;;;;;;;65.40;36.60;;;;;;;6.62;79.64;101998.95;99449;1174;67072;-64
2021/03/02 08:22:50;;;;;;;60.60;36.10;;;;;;;6.67;79.10;102000.28;99442;1171;86731;-62
2021/03/02 08:25:02;;;;;;;58.70;35.70;;;;;;;7.08;79.58;102004.93;99452;1171;75867;-65
2021/03/02 08:27:11;;;;;;;63.40;37.35;;;;;;;7.13;78.86;102002.70;99438;1174;89780;-70
2021/03/02 08:29:19;;;;;;;67.10;39.10;;;;;;;7.24;79.41;101999.98;99427;1174;82982;-67
2021/03/02 08:31:24;;;;;;;67.40;38.60;;;;;;;7.36;78.79;102012.36;99447;1174;66917;-73
2021/03/02 08:33:34;;;;;;;68.50;39.30;;;;;;;7.38;78.86;102014.94;99441;1174;87681;-68
2021/03/02 08:35:42;;;;;;;63.35;37.55;;;;;;;7.32;78.46;102021.69;99439;1175;75441;-64
2021/03/02 08:37:50;;;;;;;70.15;40.75;;;;;;;7.33;78.57;102027.92;99438;1174;89200;-64
2021/03/02 08:39:59;;;;;;;74.05;43.10;;;;;;;7.45;78.46;102025.04;99413;1171;81612;-64
2021/03/02 08:42:08;;;;;;;75.70;40.10;;;;;;;7.83;78.77;102029.02;99435;1171;67114;-64
2021/03/02 08:44:22;;;;;;;60.30;36.80;;;;;;;8.09;77.64;102022.21;99432;1171;86949;-64
2021/03/02 08:46:30;;;;;;;72.40;44.20;;;;;;;8.22;77.74;102031.77;99440;1167;74919;-75
2021/03/02 08:48:36;;;;;;;66.75;39.30;;;;;;;8.30;77.44;102029.30;99422;1175;89147;-75
2021/03/02 08:50:42;;;;;;;58.00;37.40;;;;;;;8.22;77.10;102026.39;99411;1171;82152;-65
2021/03/02 08:52:51;;;;;;;55.80;34.30;;;;;;;8.82;76.93;102032.72;99449;1175;67034;-63
2021/03/02 08:55:05;;;;;;;54.00;34.80;;;;;;;9.13;77.13;102030.80;99432;1175;87176;-74
2021/03/02 08:57:10;;;;;;;;;;;;;;;9.55;76.35;102032.25;99471;1173;75773;-75
2021/03/02 08:59:18;;;;;;;59.95;37.30;;;;;;;10.22;76.25;102025.91;99437;1172;88601;-76
2021/03/02 09:01:34;;;;;;;54.37;33.83;;;;;;;10.19;74.35;102031.60;99430;1175;82323;-74
2021/03/02 09:03:46;;;;;;;56.95;35.95;;;;;;;10.02;74.46;102039.44;99445;1175;66801;-75
2021/03/02 09:06:14;;;;;;;56.50;34.80;;;;;;;9.65;73.98;102043.88;99436;1175;86848;-64
2021/03/02 09:08:23;;;;;;;52.30;32.70;;;;;;;9.54;74.15;102043.16;99438;1168;75833;-64
2021/03/02 09:10:33;;;;;;;54.45;33.65;;;;;;;9.79;73.82;102040.74;99451;1171;88222;-64
2021/03/02 09:12:52;;;;;;;56.30;34.90;;;;;;;9.79;73.60;102043.44;99436;1175;83369;-62
2021/03/02 09:15:01;;;;;;;50.73;32.60;;;;;;;9.76;73.64;102040.17;99438;1168;66967;-69
2021/03/02 09:17:08;;;;;;;52.40;33.40;;;;;;;9.75;73.17;102039.31;99429;1175;87315;-63
2021/03/02 09:19:34;;;;;;;48.80;32.30;;;;;;;9.94;73.06;102041.16;99447;1171;74928;-64
2021/03/02 09:21:43;;;;;;;49.90;32.35;;;;;;;9.98;71.97;102040.70;99443;1173;89110;-76
2021/03/02 09:23:49;;;;;;;47.30;29.60;;;;;;;9.90;72.29;102043.28;99428;1175;82721;-77
2021/03/02 09:25:59;;;;;;;48.00;30.45;;;;;;;10.52;72.70;102052.67;99443;1175;66895;-63
2021/03/02 09:28:17;;;;;;;50.25;30.80;;;;;;;11.02;72.26;102043.13;99440;1175;87736;-64
2021/03/02 09:30:25;;;;;;;48.15;32.05;;;;;;;11.48;72.26;102043.95;99452;1171;75198;-78
2021/03/02 09:32:33;;;;;;;49.35;31.20;;;;;;;12.33;72.07;102044.95;99447;1171;90081;-77
2021/03/02 09:34:42;;;;;;;43.75;29.80;;;;;;;13.08;70.57;102045.13;99420;1175;81843;-77
2021/03/02 09:36:52;;;;;;;43.63;30.13;;;;;;;13.16;68.40;102046.00;99455;1175;66926;-78
2021/03/02 09:38:59;;;;;;;47.95;31.45;;;;;;;13.70;69.06;102044.57;99432;1175;87560;-77
2021/03/02 09:41:06;;;;;;;46.37;32.17;;;;;;;13.99;68.52;102039.45;99456;1175;75890;-65
2021/03/02 09:43:15;;;;;;;44.90;31.50;;;;;;;14.07;66.41;102038.58;99444;1175;88752;-64
2021/03/02 09:45:27;;;;;;;44.57;32.10;;;;;;;14.33;65.94;102036.55;99418;1175;81592;-76
2021/03/02 09:47:40;;;;;;;44.03;31.73;;;;;;;14.93;64.86;102038.69;99439;1175;66871;-76
2021/03/02 09:49:49;;;;;;;43.20;31.90;;;;;;;15.48;64.44;102027.66;99437;1175;87172;-78
2021/03/02 09:52:00;;;;;;;43.15;31.95;;;;;;;15.63;63.36;102021.22;99450;1175;75205;-76
2021/03/02 09:54:17;;;;;;;40.60;30.60;;;;;;;15.80;62.82;102030.96;99450;1168;89489;-76
2021/03/02 09:56:23;;;;;;;43.45;32.25;;;;;;;15.87;61.60;102025.64;99420;1175;83302;-76